This is the latest recevied weather packets stored in our database for station/object AA0PB. If no packets are shown the sender has not sent any weather packets the latest 10 day(s).
| Time | Temp. | Humidity | Pressure | Rain* | Wind** | Luminosity | Snow |
|---|---|---|---|---|---|---|---|
| 1778027867 | 18.89° C | 69% | 1015.7 hPa | 0 mm | - | 306 W/m² | - |
| 1778027564 | 18.89° C | 68% | 1016 hPa | 0 mm | - | 318 W/m² | - |
| 1778027260 | 18.89° C | 69% | 1015.8 hPa | 0 mm | - | 339 W/m² | - |
| 1778026956 | 20° C | 65% | 1015.8 hPa | 0 mm | - | 341 W/m² | - |
| 1778026651 | 20° C | 63% | 1015.7 hPa | 0 mm | - | 361 W/m² | - |
| 1778026350 | 19.44° C | 66% | 1015.8 hPa | 0 mm | - | 370 W/m² | - |
| 1778026046 | 18.89° C | 66% | 1015.8 hPa | 0 mm | - | 384 W/m² | - |
| 1778025744 | 18.89° C | 70% | 1015.9 hPa | 0 mm | - | 423 W/m² | - |
| 1778025441 | 19.44° C | 68% | 1015.8 hPa | 0 mm | - | 439 W/m² | - |
| 1778025139 | 19.44° C | 66% | 1015.7 hPa | 0 mm | - | 430 W/m² | - |
| 1778024835 | 18.33° C | 69% | 1016 hPa | 0 mm | - | 431 W/m² | - |
| 1778024533 | 17.78° C | 71% | 1016.1 hPa | 0 mm | - | 453 W/m² | - |
| 1778024229 | 18.33° C | 70% | 1016.1 hPa | 0 mm | - | 444 W/m² | - |
| 1778023927 | 18.33° C | 72% | 1016.5 hPa | 0 mm | - | 324 W/m² | - |
| 1778023624 | 18.33° C | 70% | 1016.2 hPa | 0 mm | - | 151 W/m² | - |
| 1778023321 | 18.33° C | 69% | 1016.3 hPa | 0 mm | - | 259 W/m² | - |
| 1778023018 | 18.33° C | 70% | 1016.4 hPa | 0 mm | - | 302 W/m² | - |
| 1778022717 | 18.89° C | 69% | 1016.3 hPa | 0 mm | - | 292 W/m² | - |
| 1778022415 | 18.89° C | 68% | 1016.5 hPa | 0 mm | - | 315 W/m² | - |
| 1778022111 | 17.78° C | 71% | 1016.3 hPa | 0 mm | - | 313 W/m² | - |
| 1778021807 | 17.78° C | 70% | 1016.6 hPa | 0 mm | - | 412 W/m² | - |
| 1778021504 | 18.33° C | 68% | 1016.6 hPa | 0 mm | - | 315 W/m² | - |
| 1778021200 | 17.78° C | 69% | 1016.5 hPa | 0 mm | - | 328 W/m² | - |
| 1778020898 | 17.78° C | 71% | 1016.6 hPa | 0 mm | - | 330 W/m² | - |
| 1778020595 | 17.78° C | 70% | 1016.6 hPa | 0 mm | - | 322 W/m² | - |
* Rain latest hour (hover to see other rain measurements)
** Current wind speed in m/s (hover to see current wind gust speed)